Andover, Kansas
Current Conditions -  °F | °C
As of 6:14 AM on Saturday 25 Oct 2014 (Local Time) from KAAO Reporting Station
Moderate Fog Moderate Fog  
Wind Chill: 52°   Ceiling: 300
Heat Index: 52°   Visibility: 0.25mi
Dew Point: 52°   Wind: 5mph
Humidity: 100%   Direction: 30°NNE
Pressure: 30.04"   Gusts: NA
Location:  37.71°N, 97.14°W
Report Text: KAAO 251114Z AUTO 03004KT 1/4SM FG VV003 11/11 A3004 RMK AO2 T01110111 $
Loading
Personal Weather Stations






























Interactive Weather Map
Tropical Storm Tracking
New forecast layout! Learn more

10-Day Weather Forecast

Advertisements
Track Severe Weather on mobile